Peoa, Utah
Current Conditions -  °F | °C
As of 8:55 PM on Wednesday 17 Dec 2014 (Local Time) from K36U Reporting Station
Thunderstorm Thunderstorm  
Wind Chill: 28°   Ceiling: 6500
Heat Index: 28°   Visibility: 10mi
Dew Point: 23°   Wind: 3mph
Humidity: 80%   Direction: 120°ESE
Pressure: 30.03"   Gusts: NA
Location:  40.72°N, 111.34°W
Report Text: K36U 180355Z AUTO 12003KT 10SM TS BKN065 M02/M05 A3003 RMK AO2 LTG DSNT SE
Loading
Personal Weather Stations






























Interactive Weather Map New forecast layout! Learn more

10-Day Weather Forecast

Advertisements
Track Severe Weather on mobile